Time;durP1;ratioP1;P1;durP2;ratioP2;P2;SDS_P1;SDS_P2;PMS_P1;PMS_P2;Temp;Humidity;BMP_temperature;BMP_pressure;BME280_temperature;BME280_humidity;BME280_pressure;Samples;Min_cycle;Max_cycle;Signal;HPM_P1;HPM_P2
2023/12/03 00:00:16;;;;;;;1.17;1.15;;;;;;;-6.27;95.43;98943.38;4880739;29;20061;-82
2023/12/03 00:02:43;;;;;;;0.90;0.90;;;;;;;-6.34;95.46;98934.41;4878915;29;20053;-81
2023/12/03 00:05:12;;;;;;;0.80;0.80;;;;;;;-6.35;95.52;98932.75;4877510;29;20143;-81
2023/12/03 00:07:40;;;;;;;0.80;0.80;;;;;;;-6.38;95.28;98930.38;4878283;29;20049;-82
2023/12/03 00:10:14;;;;;;;0.93;0.93;;;;;;;-6.39;95.40;98934.00;4878263;29;20057;-81
2023/12/03 00:12:44;;;;;;;0.80;0.80;;;;;;;-6.42;95.18;98929.00;4877132;29;20057;-81
2023/12/03 00:15:11;;;;;;;0.88;0.88;;;;;;;-6.39;95.29;98944.50;4878641;29;20059;-80
2023/12/03 00:17:39;;;;;;;0.90;0.90;;;;;;;-6.42;95.27;98934.28;4877925;29;20509;-81
2023/12/03 00:20:08;;;;;;;0.88;0.88;;;;;;;-6.40;95.33;98933.16;4883053;29;20153;-82
2023/12/03 00:22:35;;;;;;;0.70;0.70;;;;;;;-6.39;95.50;98934.81;4896264;29;20101;-83
2023/12/03 00:25:02;;;;;;;0.80;0.80;;;;;;;-6.39;95.20;98931.34;4897381;29;20060;-84
2023/12/03 00:27:30;;;;;;;0.90;0.90;;;;;;;-6.45;95.33;98938.00;4896663;29;20079;-84
2023/12/03 00:29:58;;;;;;;1.00;1.00;;;;;;;-6.47;95.54;98928.59;4880089;29;20049;-83
2023/12/03 00:32:25;;;;;;;0.70;0.70;;;;;;;-6.47;95.50;98926.81;4878001;29;20143;-83
2023/12/03 00:34:52;;;;;;;0.80;0.80;;;;;;;-6.49;95.59;98926.09;4877579;29;20072;-83
2023/12/03 00:37:19;;;;;;;0.80;0.80;;;;;;;-6.47;95.68;98918.91;4878315;29;20049;-83
2023/12/03 00:39:46;;;;;;;0.90;0.90;;;;;;;-6.40;95.92;98921.84;4877937;29;20057;-82
2023/12/03 00:42:13;;;;;;;0.90;0.90;;;;;;;-6.40;96.01;98925.28;4878107;29;20053;-83
2023/12/03 00:44:41;;;;;;;0.80;0.80;;;;;;;-6.41;95.85;98917.53;4876479;29;20049;-82
2023/12/03 00:47:08;;;;;;;1.00;1.00;;;;;;;-6.44;95.97;98920.44;4878028;29;20147;-82
2023/12/03 00:49:35;;;;;;;0.90;0.90;;;;;;;-6.45;96.33;98908.28;4877945;29;20060;-82
2023/12/03 00:52:03;;;;;;;1.10;1.10;;;;;;;-6.45;96.25;98903.88;4878301;29;20068;-81
2023/12/03 00:54:30;;;;;;;0.88;0.88;;;;;;;-6.43;96.28;98901.09;4878108;29;20049;-81
2023/12/03 00:56:58;;;;;;;0.80;0.80;;;;;;;-6.44;96.35;98889.75;4877871;29;20088;-82
2023/12/03 00:59:27;;;;;;;0.98;0.98;;;;;;;-6.38;96.79;98889.22;4878033;29;20056;-82
2023/12/03 01:01:54;;;;;;;0.88;0.88;;;;;;;-6.34;96.56;98884.50;4877549;29;20056;-81
2023/12/03 01:04:21;;;;;;;0.90;0.90;;;;;;;-6.30;96.58;98885.88;4877814;29;20505;-81
2023/12/03 01:06:49;;;;;;;0.80;0.80;;;;;;;-6.25;96.60;98880.19;4877568;29;20057;-82
2023/12/03 01:09:17;;;;;;;0.75;0.75;;;;;;;-6.18;96.62;98890.03;4880009;29;20490;-82
2023/12/03 01:11:44;;;;;;;0.70;0.70;;;;;;;-6.16;96.64;98888.06;4880561;29;20056;-82
2023/12/03 01:14:11;;;;;;;0.80;0.80;;;;;;;-6.12;96.50;98891.25;4880944;29;20508;-82
2023/12/03 01:16:38;;;;;;;0.90;0.90;;;;;;;-6.11;96.57;98891.09;4880803;29;20056;-82
2023/12/03 01:19:05;;;;;;;0.90;0.90;;;;;;;-6.07;96.74;98901.34;4880639;29;20147;-82
2023/12/03 01:21:32;;;;;;;0.98;0.98;;;;;;;-6.01;96.84;98901.59;4880717;29;20224;-83
2023/12/03 01:24:00;;;;;;;1.23;1.20;;;;;;;-6.07;96.64;98896.91;4910269;29;20082;-82
2023/12/03 01:26:27;;;;;;;1.00;1.00;;;;;;;-6.05;96.86;98894.13;4879493;29;20060;-82
2023/12/03 01:28:54;;;;;;;1.13;1.13;;;;;;;-6.04;96.88;98898.44;4880205;29;20077;-83
2023/12/03 01:31:21;;;;;;;0.85;0.85;;;;;;;-6.06;96.75;98903.00;4879302;29;20131;-83
2023/12/03 01:33:49;;;;;;;0.85;0.85;;;;;;;-6.04;96.89;98893.19;4879748;29;20428;-83
2023/12/03 01:36:16;;;;;;;0.80;0.80;;;;;;;-5.99;96.76;98894.41;4879909;29;20075;-82
2023/12/03 01:38:44;;;;;;;0.95;0.95;;;;;;;-5.96;96.67;98895.91;4878962;29;20060;-82
2023/12/03 01:41:11;;;;;;;1.17;1.15;;;;;;;-5.94;96.76;98893.97;4879927;29;20075;-82
2023/12/03 01:43:52;;;;;;;1.00;1.00;;;;;;;-6.02;97.16;98883.34;4880111;29;20049;-81
2023/12/03 01:46:23;;;;;;;0.77;0.77;;;;;;;-6.06;96.97;98887.22;4879852;29;20053;-81
2023/12/03 01:48:50;;;;;;;0.70;0.70;;;;;;;-6.04;96.85;98872.97;4879961;29;20055;-82
2023/12/03 01:51:18;;;;;;;0.85;0.85;;;;;;;-6.09;96.40;98883.09;4880166;29;20420;-81
2023/12/03 01:53:46;;;;;;;0.82;0.82;;;;;;;-6.08;96.69;98894.41;4894124;29;20136;-82
2023/12/03 01:56:13;;;;;;;1.00;1.00;;;;;;;-6.05;96.76;98896.75;4878872;29;20060;-81
2023/12/03 01:58:40;;;;;;;1.00;1.00;;;;;;;-6.02;96.75;98904.38;4880196;29;20060;-82
2023/12/03 02:01:08;;;;;;;0.77;0.77;;;;;;;-6.04;96.59;98903.69;4880852;29;20045;-82
2023/12/03 02:03:35;;;;;;;0.80;0.80;;;;;;;-6.11;96.27;98896.34;4880024;29;20140;-82
2023/12/03 02:06:06;;;;;;;1.00;1.00;;;;;;;-6.17;96.30;98894.28;4880135;29;20064;-82
2023/12/03 02:08:34;;;;;;;1.08;1.08;;;;;;;-6.22;96.19;98895.69;4879845;29;20063;-81
2023/12/03 02:11:04;;;;;;;0.90;0.90;;;;;;;-6.28;96.00;98889.19;4879815;29;20045;-81
2023/12/03 02:13:34;;;;;;;0.80;0.80;;;;;;;-6.29;96.32;98886.72;4879510;29;20056;-82
2023/12/03 02:16:01;;;;;;;0.90;0.90;;;;;;;-6.32;96.31;98887.81;4880405;29;20133;-82
2023/12/03 02:18:30;;;;;;;0.80;0.80;;;;;;;-6.37;96.04;98888.22;4881850;29;20105;-82
2023/12/03 02:21:17;;;;;;;0.70;0.70;;;;;;;-6.41;96.30;98896.53;4852817;29;20484;-81
2023/12/03 02:23:47;;;;;;;1.05;1.05;;;;;;;-6.48;96.25;98898.03;4879674;29;20576;-82
2023/12/03 02:26:14;;;;;;;0.90;0.90;;;;;;;-6.60;95.96;98895.56;4879702;29;20060;-81
2023/12/03 02:28:41;;;;;;;0.98;0.98;;;;;;;-6.68;95.67;98895.44;4879068;29;20406;-82
2023/12/03 02:31:11;;;;;;;1.10;1.10;;;;;;;-6.69;95.80;98903.44;4879371;29;20309;-81
2023/12/03 02:33:38;;;;;;;0.90;0.90;;;;;;;-6.67;95.86;98904.13;4878915;29;20547;-82
2023/12/03 02:36:06;;;;;;;0.77;0.77;;;;;;;-6.67;95.82;98899.72;4878924;29;20504;-81
2023/12/03 02:38:34;;;;;;;0.82;0.82;;;;;;;-6.68;95.81;98892.81;4879254;29;20064;-81
2023/12/03 02:41:07;;;;;;;0.90;0.90;;;;;;;-6.58;95.70;98904.13;4879030;29;20079;-82
2023/12/03 02:43:34;;;;;;;0.90;0.90;;;;;;;-6.59;95.21;98905.09;4878715;29;20167;-82
2023/12/03 02:46:01;;;;;;;0.90;0.90;;;;;;;-6.64;95.23;98909.09;4878790;29;20076;-82
2023/12/03 02:48:28;;;;;;;0.80;0.80;;;;;;;-6.73;94.86;98889.78;4879302;29;20401;-82
2023/12/03 02:50:56;;;;;;;0.90;0.90;;;;;;;-6.77;95.14;98888.38;4878659;29;20149;-81
2023/12/03 02:53:23;;;;;;;1.00;1.00;;;;;;;-6.74;95.03;98889.91;4878946;29;20238;-81
2023/12/03 02:55:50;;;;;;;1.00;1.00;;;;;;;-6.71;95.09;98895.69;4878929;29;20056;-80
2023/12/03 02:58:17;;;;;;;0.80;0.80;;;;;;;-6.71;95.00;98903.56;4878812;29;20068;-81
2023/12/03 03:00:45;;;;;;;0.80;0.80;;;;;;;-6.73;94.79;98884.53;4883791;29;20064;-82
2023/12/03 03:03:12;;;;;;;0.90;0.90;;;;;;;-6.69;95.13;98877.19;4897415;29;20052;-82
2023/12/03 03:05:39;;;;;;;0.70;0.70;;;;;;;-6.68;95.12;98902.47;4896343;29;20053;-82
2023/12/03 03:08:06;;;;;;;0.90;0.90;;;;;;;-6.68;94.96;98890.19;4897208;29;20416;-81
2023/12/03 03:10:33;;;;;;;0.90;0.90;;;;;;;-6.75;94.99;98875.94;4897284;29;20063;-82
2023/12/03 03:13:01;;;;;;;0.80;0.80;;;;;;;-6.71;95.02;98887.81;4897082;29;20056;-81
2023/12/03 03:15:29;;;;;;;0.80;0.80;;;;;;;-6.70;95.17;98881.63;4896033;29;20079;-81
2023/12/03 03:17:56;;;;;;;0.98;0.98;;;;;;;-6.66;94.93;98884.78;4878340;29;20521;-81
2023/12/03 03:20:23;;;;;;;0.80;0.80;;;;;;;-6.68;94.97;98870.97;4878019;29;20109;-82
2023/12/03 03:22:51;;;;;;;1.13;1.13;;;;;;;-6.68;94.81;98861.31;4878025;29;20055;-81
2023/12/03 03:25:18;;;;;;;1.10;1.10;;;;;;;-6.63;94.75;98869.59;4878286;29;20443;-82
2023/12/03 03:27:45;;;;;;;0.95;0.95;;;;;;;-6.66;94.74;98858.53;4878089;29;20136;-80
2023/12/03 03:30:12;;;;;;;0.85;0.85;;;;;;;-6.67;94.72;98854.25;4878646;29;20045;-81
2023/12/03 03:32:40;;;;;;;1.10;1.10;;;;;;;-6.71;94.83;98837.94;4877651;29;20057;-82
2023/12/03 03:35:07;;;;;;;0.95;0.95;;;;;;;-6.76;94.98;98837.53;4877902;29;20466;-81
2023/12/03 03:37:35;;;;;;;1.17;1.15;;;;;;;-6.78;94.78;98834.25;4878028;29;20508;-80
2023/12/03 03:40:02;;;;;;;1.02;1.02;;;;;;;-6.83;94.68;98829.41;4877942;29;20056;-81
2023/12/03 03:42:31;;;;;;;0.90;0.90;;;;;;;-6.87;94.82;98832.44;4878067;29;20517;-82
2023/12/03 03:44:58;;;;;;;0.90;0.90;;;;;;;-6.86;95.01;98828.81;4878220;29;20045;-82
2023/12/03 03:47:26;;;;;;;0.90;0.90;;;;;;;-6.83;94.94;98815.44;4878185;29;20566;-81
2023/12/03 03:49:53;;;;;;;0.90;0.90;;;;;;;-6.85;95.01;98820.00;4877653;29;20095;-81
2023/12/03 03:52:21;;;;;;;0.90;0.90;;;;;;;-6.82;95.16;98820.53;4877946;29;20060;-82
2023/12/03 03:54:48;;;;;;;1.00;1.00;;;;;;;-6.79;95.08;98822.06;4877595;29;20045;-82
2023/12/03 03:57:16;;;;;;;0.82;0.82;;;;;;;-6.77;95.09;98828.00;4878244;29;20131;-82
2023/12/03 03:59:44;;;;;;;0.90;0.90;;;;;;;-6.83;94.80;98825.94;4877930;29;20053;-81
2023/12/03 04:02:12;;;;;;;0.80;0.80;;;;;;;-6.91;94.81;98828.41;4876559;29;20049;-81
2023/12/03 04:04:39;;;;;;;1.10;1.10;;;;;;;-6.96;94.85;98826.22;4876736;29;20416;-82
2023/12/03 04:07:10;;;;;;;0.80;0.80;;;;;;;-7.01;94.93;98833.69;4877715;29;20509;-82
2023/12/03 04:09:37;;;;;;;0.90;0.90;;;;;;;-7.04;95.16;98841.78;4877834;29;20521;-83
2023/12/03 04:12:04;;;;;;;0.88;0.88;;;;;;;-7.07;95.04;98848.16;4877099;29;20512;-83
2023/12/03 04:14:31;;;;;;;0.70;0.70;;;;;;;-7.14;94.96;98840.97;4878495;29;20401;-82
2023/12/03 04:16:58;;;;;;;1.10;1.10;;;;;;;-7.17;94.98;98847.31;4891600;29;20062;-82
2023/12/03 04:19:25;;;;;;;0.93;0.93;;;;;;;-7.21;94.82;98849.38;4878213;29;20049;-82
2023/12/03 04:21:53;;;;;;;1.00;1.00;;;;;;;-7.20;95.07;98851.03;4877193;29;20048;-82
2023/12/03 04:24:20;;;;;;;0.88;0.88;;;;;;;-7.19;95.11;98851.84;4878476;29;20121;-82
2023/12/03 04:26:47;;;;;;;0.90;0.90;;;;;;;-7.18;95.00;98848.28;4878276;29;20056;-82
2023/12/03 04:29:14;;;;;;;0.80;0.80;;;;;;;-7.16;94.88;98861.25;4878658;29;20049;-82
2023/12/03 04:31:41;;;;;;;0.95;0.95;;;;;;;-7.21;94.87;98844.13;4893722;29;20060;-84
2023/12/03 04:34:09;;;;;;;1.35;1.25;;;;;;;-7.18;94.74;98842.22;4910784;29;20056;-82
2023/12/03 04:36:36;;;;;;;0.80;0.80;;;;;;;-7.21;94.76;98833.66;4907819;29;20086;-84
2023/12/03 04:39:04;;;;;;;0.85;0.85;;;;;;;-7.30;94.63;98836.25;4899278;29;20102;-83
2023/12/03 04:41:36;;;;;;;0.90;0.90;;;;;;;-7.34;94.65;98832.22;4893428;29;20061;-81
2023/12/03 04:44:04;;;;;;;0.90;0.90;;;;;;;-7.33;94.60;98839.97;4898176;29;20057;-83
2023/12/03 04:46:34;;;;;;;0.90;0.90;;;;;;;-7.32;94.40;98835.53;4893692;29;20048;-83
2023/12/03 04:49:02;;;;;;;0.90;0.90;;;;;;;-7.31;94.40;98827.56;4885404;29;20103;-82
2023/12/03 04:51:30;;;;;;;0.70;0.70;;;;;;;-7.30;94.31;98825.75;4904563;29;20084;-83
2023/12/03 04:53:57;;;;;;;0.93;0.93;;;;;;;-7.25;94.33;98823.56;4920029;29;20072;-82
2023/12/03 04:56:25;;;;;;;1.00;1.00;;;;;;;-7.23;94.30;98819.00;4919233;29;20056;-82
2023/12/03 04:58:52;;;;;;;0.90;0.90;;;;;;;-7.23;94.27;98827.69;4913006;29;20380;-83
2023/12/03 05:01:19;;;;;;;0.90;0.90;;;;;;;-7.21;94.31;98822.34;4900219;29;20472;-82
2023/12/03 05:03:46;;;;;;;0.80;0.80;;;;;;;-7.21;94.30;98827.56;4900677;29;20388;-84
2023/12/03 05:06:13;;;;;;;0.90;0.90;;;;;;;-7.22;94.32;98825.91;4900359;29;20136;-83
2023/12/03 05:08:41;;;;;;;0.77;0.77;;;;;;;-7.18;94.47;98826.47;4898461;29;20052;-83
2023/12/03 05:11:08;;;;;;;0.90;0.90;;;;;;;-7.19;94.26;98830.88;4900011;29;20049;-83
2023/12/03 05:13:35;;;;;;;0.90;0.90;;;;;;;-7.20;94.13;98844.97;4899740;29;20052;-83
2023/12/03 05:16:07;;;;;;;0.75;0.75;;;;;;;-7.24;94.15;98836.53;4901756;29;20056;-82
2023/12/03 05:18:34;;;;;;;1.00;1.00;;;;;;;-7.24;93.99;98828.69;4911940;29;20476;-82
2023/12/03 05:21:02;;;;;;;1.10;1.10;;;;;;;-7.20;94.19;98840.53;4908625;29;20060;-82
2023/12/03 05:23:30;;;;;;;0.88;0.88;;;;;;;-7.21;93.96;98833.66;4917108;29;20116;-82
2023/12/03 05:25:58;;;;;;;0.90;0.90;;;;;;;-7.24;94.07;98826.06;4894125;29;20087;-81
2023/12/03 05:28:25;;;;;;;0.80;0.80;;;;;;;-7.24;94.13;98820.81;4880174;29;20120;-81
2023/12/03 05:30:52;;;;;;;0.90;0.90;;;;;;;-7.28;93.84;98816.78;4879713;29;20494;-82
2023/12/03 05:33:20;;;;;;;0.98;0.98;;;;;;;-7.29;93.83;98814.28;4886267;29;20101;-82
2023/12/03 05:35:47;;;;;;;0.93;0.93;;;;;;;-7.31;93.90;98813.63;4882483;29;20048;-81
2023/12/03 05:38:14;;;;;;;1.00;1.00;;;;;;;-7.27;93.98;98817.63;4897417;29;20056;-82
2023/12/03 05:40:42;;;;;;;0.98;0.98;;;;;;;-7.32;93.62;98819.81;4880289;29;20053;-80
2023/12/03 05:43:09;;;;;;;0.98;0.98;;;;;;;-7.31;94.23;98824.09;4893234;29;20055;-82
2023/12/03 05:45:36;;;;;;;0.90;0.90;;;;;;;-7.29;94.21;98824.78;4889940;29;20064;-81
2023/12/03 05:48:04;;;;;;;0.90;0.90;;;;;;;-7.27;94.16;98822.84;4896663;29;20051;-81
2023/12/03 05:50:31;;;;;;;0.80;0.80;;;;;;;-7.29;93.94;98823.00;4891020;29;20045;-80
2023/12/03 05:52:58;;;;;;;1.00;1.00;;;;;;;-7.34;93.72;98814.72;4880371;29;20092;-81
2023/12/03 05:55:25;;;;;;;0.90;0.90;;;;;;;-7.36;93.54;98808.78;4895110;29;20052;-80
2023/12/03 05:57:52;;;;;;;0.90;0.90;;;;;;;-7.29;93.85;98814.28;4878748;29;20068;-82
2023/12/03 06:00:19;;;;;;;0.80;0.80;;;;;;;-7.29;93.60;98801.19;4870600;29;20675;-82
2023/12/03 06:02:47;;;;;;;0.98;0.98;;;;;;;-7.29;93.48;98817.78;4869696;29;20053;-81
2023/12/03 06:05:14;;;;;;;1.00;1.00;;;;;;;-7.34;93.16;98809.47;4878767;29;20057;-81
2023/12/03 06:07:45;;;;;;;0.90;0.90;;;;;;;-7.33;92.98;98808.50;4878604;29;20105;-81
2023/12/03 06:10:14;;;;;;;0.88;0.88;;;;;;;-7.34;92.73;98806.00;4872616;29;20101;-82
2023/12/03 06:12:41;;;;;;;0.80;0.80;;;;;;;-7.32;92.46;98798.84;4879748;29;20059;-81
2023/12/03 06:15:09;;;;;;;1.02;1.02;;;;;;;-7.34;92.33;98792.91;4873044;29;20061;-81
2023/12/03 06:17:36;;;;;;;1.10;1.10;;;;;;;-7.32;91.91;98788.34;4875721;29;20061;-80
2023/12/03 06:20:03;;;;;;;0.90;0.90;;;;;;;-7.33;92.19;98773.59;4874206;29;20092;-81
2023/12/03 06:22:30;;;;;;;1.00;1.00;;;;;;;-7.30;91.82;98770.69;4874538;29;20056;-82
2023/12/03 06:24:58;;;;;;;0.80;0.80;;;;;;;-7.30;91.56;98770.69;4879576;29;20053;-79
2023/12/03 06:27:25;;;;;;;0.90;0.90;;;;;;;-7.34;91.18;98751.78;4873564;29;20069;-82
2023/12/03 06:29:53;;;;;;;0.90;0.90;;;;;;;-7.31;90.77;98740.19;4873588;29;20077;-80
2023/12/03 06:32:20;;;;;;;0.95;0.95;;;;;;;-7.34;90.62;98754.41;4877015;29;20053;-80
2023/12/03 06:34:47;;;;;;;0.90;0.90;;;;;;;-7.35;90.22;98726.53;4870552;29;20055;-80
2023/12/03 06:37:14;;;;;;;0.90;0.90;;;;;;;-7.35;90.09;98723.06;4878524;29;20056;-80
2023/12/03 06:39:42;;;;;;;0.98;0.98;;;;;;;-7.31;90.02;98724.47;4878598;29;20056;-79
2023/12/03 06:42:10;;;;;;;0.90;0.90;;;;;;;-7.32;90.13;98710.50;4877686;29;20173;-80
2023/12/03 06:44:38;;;;;;;0.90;0.90;;;;;;;-7.33;89.80;98692.31;4872605;29;20132;-82
2023/12/03 06:47:10;;;;;;;1.05;1.05;;;;;;;-7.26;89.97;98699.47;4878670;29;20050;-82
2023/12/03 06:49:38;;;;;;;0.90;0.90;;;;;;;-7.26;89.89;98693.41;4859983;29;20425;-81
2023/12/03 06:52:05;;;;;;;0.90;0.90;;;;;;;-7.28;89.74;98693.53;4876388;29;20147;-83
2023/12/03 06:54:34;;;;;;;0.80;0.80;;;;;;;-7.27;89.78;98699.59;4890748;29;20048;-82
2023/12/03 06:57:01;;;;;;;1.05;1.05;;;;;;;-7.24;89.72;98705.41;4897537;29;20056;-83
2023/12/03 06:59:28;;;;;;;0.70;0.70;;;;;;;-7.23;89.54;98714.09;4895771;29;20059;-82
2023/12/03 07:01:55;;;;;;;0.80;0.80;;;;;;;-7.24;89.34;98723.78;4894027;29;20585;-82
2023/12/03 07:04:23;;;;;;;0.90;0.90;;;;;;;-7.20;89.18;98722.50;4897651;29;20157;-83
2023/12/03 07:06:50;;;;;;;0.80;0.80;;;;;;;-7.20;89.09;98734.81;4895291;29;20056;-84
2023/12/03 07:09:17;;;;;;;0.80;0.80;;;;;;;-7.18;88.80;98742.56;4897990;29;20095;-82
2023/12/03 07:12:04;;;;;;;0.90;0.90;;;;;;;-7.24;88.60;98744.75;4894648;29;20071;-84
2023/12/03 07:14:32;;;;;;;0.90;0.90;;;;;;;-7.24;88.24;98760.50;4892941;29;20526;-82
2023/12/03 07:16:59;;;;;;;0.90;0.90;;;;;;;-7.26;88.29;98762.41;4894659;29;20044;-82
2023/12/03 07:19:26;;;;;;;0.90;0.90;;;;;;;-7.25;88.30;98771.09;4886636;29;20109;-79
2023/12/03 07:21:53;;;;;;;1.00;1.00;;;;;;;-7.26;87.97;98766.84;4890153;29;20056;-82
2023/12/03 07:24:21;;;;;;;0.80;0.80;;;;;;;-7.21;88.18;98765.47;4887418;29;20113;-79
2023/12/03 07:26:48;;;;;;;0.95;0.95;;;;;;;-7.17;88.18;98775.66;4877622;29;20053;-79
2023/12/03 07:29:19;;;;;;;1.00;1.00;;;;;;;-7.21;88.23;98769.88;4877014;29;21018;-81
2023/12/03 07:31:49;;;;;;;0.90;0.90;;;;;;;-7.22;88.13;98768.19;4874190;29;20060;-82
2023/12/03 07:34:16;;;;;;;0.90;0.90;;;;;;;-7.19;88.37;98775.78;4887017;29;20070;-82
2023/12/03 07:36:44;;;;;;;0.90;0.90;;;;;;;-7.26;88.17;98772.91;4888808;29;20045;-81
2023/12/03 07:39:11;;;;;;;1.00;1.00;;;;;;;-7.32;88.81;98768.19;4881825;29;20112;-83
2023/12/03 07:41:41;;;;;;;0.88;0.88;;;;;;;-7.43;88.81;98769.16;4891036;29;20053;-81
2023/12/03 07:44:08;;;;;;;0.98;0.98;;;;;;;-7.50;89.27;98760.16;4891013;29;20559;-81
2023/12/03 07:46:36;;;;;;;0.80;0.80;;;;;;;-7.49;89.31;98756.59;4884471;29;20057;-81
2023/12/03 07:49:04;;;;;;;0.80;0.80;;;;;;;-7.54;89.48;98758.81;4895355;29;20048;-81
2023/12/03 07:51:32;;;;;;;0.73;0.73;;;;;;;-7.47;89.87;98770.41;4883037;29;20575;-82
2023/12/03 07:54:00;;;;;;;0.80;0.80;;;;;;;-7.52;89.96;98761.28;4876764;29;20088;-82
2023/12/03 07:56:37;;;;;;;0.80;0.80;;;;;;;-7.49;90.40;98759.22;4884497;29;20053;-82
2023/12/03 07:59:05;;;;;;;0.93;0.93;;;;;;;-7.54;90.55;98752.75;4880860;29;20060;-81
2023/12/03 08:01:32;;;;;;;0.90;0.90;;;;;;;-7.47;90.87;98741.56;4881141;29;20052;-79
2023/12/03 08:04:00;;;;;;;0.80;0.80;;;;;;;-7.47;91.00;98738.94;4893657;29;20085;-80
2023/12/03 08:06:29;;;;;;;0.80;0.80;;;;;;;-7.48;90.90;98742.53;4883265;29;20059;-79
2023/12/03 08:08:58;;;;;;;0.90;0.90;;;;;;;-7.50;91.10;98725.28;4884555;29;20057;-81
2023/12/03 08:11:25;;;;;;;1.10;1.10;;;;;;;-7.55;91.08;98712.56;4892860;29;20052;-82
2023/12/03 08:13:54;;;;;;;0.93;0.93;;;;;;;-7.60;91.15;98692.97;4890636;29;20052;-81
2023/12/03 08:16:21;;;;;;;1.00;1.00;;;;;;;-7.66;91.32;98678.63;4886931;29;20135;-80
2023/12/03 08:18:49;;;;;;;1.00;1.00;;;;;;;-7.67;91.37;98669.94;4889785;29;20144;-80
2023/12/03 08:21:16;;;;;;;0.73;0.73;;;;;;;-7.69;91.66;98655.34;4889399;29;20136;-83
2023/12/03 08:23:43;;;;;;;0.90;0.90;;;;;;;-7.69;91.72;98650.91;4885196;29;20064;-81
2023/12/03 08:26:12;;;;;;;0.80;0.80;;;;;;;-7.72;91.55;98647.72;4888378;29;20080;-80
2023/12/03 08:28:39;;;;;;;0.80;0.80;;;;;;;-7.76;91.67;98652.41;4892380;29;20080;-83
2023/12/03 08:31:10;;;;;;;0.90;0.90;;;;;;;-7.73;92.06;98651.31;4881889;29;20057;-80
2023/12/03 08:33:40;;;;;;;1.03;1.03;;;;;;;-7.75;92.13;98637.53;4885872;29;20049;-82
2023/12/03 08:36:08;;;;;;;1.00;1.00;;;;;;;-7.79;92.42;98602.91;4875102;29;20112;-84
2023/12/03 08:38:36;;;;;;;1.00;1.00;;;;;;;-7.83;92.38;98596.28;4879613;29;20061;-84
2023/12/03 08:41:03;;;;;;;0.90;0.90;;;;;;;-7.89;92.47;98591.63;4880892;29;20085;-84
2023/12/03 08:43:32;;;;;;;0.80;0.80;;;;;;;-7.90;92.55;98595.19;4871332;29;20462;-84
2023/12/03 08:46:00;;;;;;;0.98;0.98;;;;;;;-8.01;92.49;98588.28;4890131;29;20075;-80
2023/12/03 08:48:27;;;;;;;0.98;0.98;;;;;;;-8.02;92.64;98580.59;4880803;29;20053;-80
2023/12/03 08:50:55;;;;;;;1.00;1.00;;;;;;;-8.00;92.55;98568.16;4881232;29;20430;-78
2023/12/03 08:53:23;;;;;;;0.80;0.80;;;;;;;-7.99;92.61;98544.47;4881030;29;20504;-79
2023/12/03 08:55:51;;;;;;;1.13;1.13;;;;;;;-7.97;92.46;98550.38;4889587;29;20069;-78
2023/12/03 08:58:18;;;;;;;1.00;1.00;;;;;;;-7.92;92.69;98542.94;4541904;29;10000763;-79
2023/12/03 09:00:47;;;;;;;0.90;0.90;;;;;;;-7.91;92.64;98541.97;4884422;29;20052;-80
2023/12/03 09:03:14;;;;;;;0.93;0.93;;;;;;;-7.87;92.68;98527.63;4882663;29;20071;-79
2023/12/03 09:05:44;;;;;;;0.82;0.82;;;;;;;-7.83;92.82;98516.88;4883904;29;20059;-78
2023/12/03 09:08:15;;;;;;;0.90;0.90;;;;;;;-7.78;93.05;98519.91;4884853;29;20049;-79
2023/12/03 09:10:43;;;;;;;0.82;0.82;;;;;;;-7.76;92.95;98507.50;4888892;29;20049;-81
2023/12/03 09:13:10;;;;;;;0.70;0.70;;;;;;;-7.74;93.19;98500.31;4898730;29;20096;-80
2023/12/03 09:15:38;;;;;;;1.23;1.17;;;;;;;-7.72;93.20;98499.22;4893399;29;20049;-79
2023/12/03 09:18:05;;;;;;;0.85;0.85;;;;;;;-7.64;93.21;98493.25;4890985;29;20531;-81
2023/12/03 09:20:33;;;;;;;1.00;1.00;;;;;;;-7.61;93.30;98492.16;4885480;29;20064;-80
2023/12/03 09:23:01;;;;;;;1.05;1.05;;;;;;;-7.58;93.09;98484.00;4870693;29;20055;-81
2023/12/03 09:25:28;;;;;;;0.90;0.90;;;;;;;-7.55;93.24;98475.84;4878004;29;20052;-81
2023/12/03 09:27:57;;;;;;;0.98;0.98;;;;;;;-7.56;93.15;98480.28;4862455;29;20760;-81
2023/12/03 09:30:25;;;;;;;1.00;1.00;;;;;;;-7.49;93.41;98465.63;4877803;29;20059;-79
2023/12/03 09:32:53;;;;;;;0.77;0.77;;;;;;;-7.42;93.36;98473.72;4877318;29;20469;-81
2023/12/03 09:35:23;;;;;;;1.00;1.00;;;;;;;-7.39;93.40;98481.34;4878531;29;20587;-82
2023/12/03 09:37:58;;;;;;;0.70;0.70;;;;;;;-7.37;93.41;98476.75;4882232;29;20045;-87
2023/12/03 09:40:53;;;;;;;0.73;0.73;;;;;;;-7.36;93.25;98467.94;4869226;29;20057;-83
2023/12/03 09:43:27;;;;;;;0.88;0.88;;;;;;;-7.43;93.24;98459.81;4880648;29;20049;-85
2023/12/03 09:45:56;;;;;;;0.80;0.80;;;;;;;-7.50;93.57;98456.09;4881392;29;20215;-84
2023/12/03 09:48:29;;;;;;;0.90;0.90;;;;;;;-7.52;93.68;98451.97;4865094;29;20041;-86
2023/12/03 09:51:25;;;;;;;0.80;0.80;;;;;;;-7.51;93.87;98443.97;4871330;29;20082;-82
2023/12/03 09:53:54;;;;;;;0.93;0.93;;;;;;;-7.46;93.76;98435.69;4815037;29;20077;-81
2023/12/03 09:56:23;;;;;;;1.00;1.00;;;;;;;-7.46;93.64;98433.88;4822861;29;20061;-84
2023/12/03 09:58:54;;;;;;;0.90;0.90;;;;;;;-7.48;93.80;98425.34;4831867;29;20054;-84
2023/12/03 10:01:25;;;;;;;0.90;0.90;;;;;;;-7.46;93.87;98428.66;4813207;29;20112;-81
2023/12/03 10:03:52;;;;;;;1.05;1.05;;;;;;;-7.53;94.07;98403.16;4827330;29;20046;-82
2023/12/03 10:06:23;;;;;;;0.98;0.98;;;;;;;-7.51;94.18;98401.22;4820912;29;20423;-82
2023/12/03 10:08:51;;;;;;;0.90;0.90;;;;;;;-7.40;94.26;98414.13;4813951;29;20107;-82
2023/12/03 10:11:25;;;;;;;0.90;0.90;;;;;;;-7.34;94.13;98410.94;4827459;29;20103;-81
2023/12/03 10:13:56;;;;;;;0.83;0.83;;;;;;;-7.29;93.96;98415.72;4803774;29;20086;-81
2023/12/03 10:16:24;;;;;;;0.80;0.80;;;;;;;-7.31;94.01;98417.69;4814191;29;20310;-83
2023/12/03 10:18:51;;;;;;;0.80;0.80;;;;;;;-7.34;93.96;98423.19;4820931;29;20137;-80
2023/12/03 10:21:20;;;;;;;0.80;0.80;;;;;;;-7.34;94.20;98428.44;4805304;29;20133;-81
2023/12/03 10:24:04;;;;;;;1.00;1.00;;;;;;;-7.32;94.33;98419.47;4815844;29;20088;-81
2023/12/03 10:26:32;;;;;;;0.90;0.90;;;;;;;-7.24;94.37;98424.81;4799281;29;20058;-83
2023/12/03 10:29:06;;;;;;;0.93;0.93;;;;;;;-7.18;94.33;98412.91;4830697;29;20070;-83
2023/12/03 10:31:36;;;;;;;0.80;0.80;;;;;;;-7.17;94.30;98398.81;4882312;29;20461;-80
2023/12/03 10:34:04;;;;;;;0.85;0.85;;;;;;;-7.20;94.16;98397.31;4892294;29;20123;-81
2023/12/03 10:36:33;;;;;;;0.90;0.90;;;;;;;-7.23;93.91;98383.69;4870905;29;20053;-79
2023/12/03 10:39:06;;;;;;;0.95;0.95;;;;;;;-7.29;93.92;98364.13;4894655;29;20115;-82
2023/12/03 10:41:34;;;;;;;0.98;0.98;;;;;;;-7.28;94.14;98368.38;4893217;29;20066;-81
2023/12/03 10:44:02;;;;;;;0.90;0.90;;;;;;;-7.31;94.04;98366.06;4873830;29;20120;-82
2023/12/03 10:46:29;;;;;;;0.90;0.90;;;;;;;-7.31;94.16;98358.19;4887256;29;20048;-83
2023/12/03 10:48:57;;;;;;;0.98;0.98;;;;;;;-7.29;94.30;98323.94;4881971;29;20053;-81
2023/12/03 10:51:26;;;;;;;1.10;1.10;;;;;;;-7.29;94.40;98302.97;4874381;29;20063;-79
2023/12/03 10:53:55;;;;;;;0.90;0.90;;;;;;;-7.29;94.27;98300.34;4873705;29;20141;-81
2023/12/03 10:56:23;;;;;;;0.67;0.67;;;;;;;-7.31;94.34;98312.81;4554303;29;10000435;-83
2023/12/03 10:58:50;;;;;;;0.80;0.80;;;;;;;-7.32;94.27;98303.28;4877600;29;20168;-81
2023/12/03 11:01:25;;;;;;;0.90;0.90;;;;;;;-7.30;94.29;98289.06;4880121;29;20083;-83
2023/12/03 11:03:56;;;;;;;0.82;0.82;;;;;;;-7.28;94.37;98276.63;4878182;29;20055;-82
2023/12/03 11:06:26;;;;;;;0.95;0.95;;;;;;;-7.32;94.47;98280.50;4894868;29;20053;-83
2023/12/03 11:08:55;;;;;;;0.95;0.95;;;;;;;-7.33;94.67;98288.53;4884845;29;20076;-81
2023/12/03 11:11:25;;;;;;;0.85;0.85;;;;;;;-7.37;94.80;98282.75;4881588;29;20061;-84
2023/12/03 11:13:57;;;;;;;0.90;0.90;;;;;;;-7.39;95.34;98281.25;4857745;29;20068;-82
2023/12/03 11:16:53;;;;;;;0.90;0.90;;;;;;;-7.41;95.26;98303.19;4869524;29;20045;-82
2023/12/03 11:19:35;;;;;;;0.90;0.90;;;;;;;-7.36;95.61;98294.09;4871548;29;20050;-82
2023/12/03 11:22:35;;;;;;;0.98;0.98;;;;;;;-7.36;95.63;98278.34;4877802;29;20053;-82
2023/12/03 11:25:12;;;;;;;1.10;1.10;;;;;;;-7.35;95.69;98266.88;4879464;29;20520;-82
2023/12/03 11:27:41;;;;;;;0.80;0.80;;;;;;;-7.33;95.57;98262.31;4879567;29;20081;-83
2023/12/03 11:30:11;;;;;;;0.70;0.70;;;;;;;-7.28;95.66;98265.31;4877955;29;20061;-82
2023/12/03 11:32:39;;;;;;;1.02;1.02;;;;;;;-7.28;95.47;98255.66;4877502;29;20085;-82
2023/12/03 11:35:18;;;;;;;0.90;0.90;;;;;;;-7.27;95.62;98253.84;4872327;29;20057;-82
2023/12/03 11:37:46;;;;;;;0.80;0.80;;;;;;;-7.28;95.78;98244.34;4862229;29;20057;-82
2023/12/03 11:40:15;;;;;;;0.85;0.85;;;;;;;-7.30;95.60;98247.09;4859837;29;20060;-82